Time,TemperatureF,DewpointF,PressureIn,WindDirection,WindDirectionDegrees,WindSpeedMPH,WindSpeedGustMPH,Humidity,HourlyPrecipIn,Conditions,Clouds,dailyrainin,SoftwareType,DateUTC
2013-08-25 00:14:00,55.4,41.7,29.74,NE,45,0.0,-999.0,60,-99.99,,,0.00,Acu-Link.com,2013-08-25 07:14:00,
2013-08-25 00:29:00,55.4,41.3,29.74,NNE,22,0.0,-999.0,59,-99.99,,,0.00,Acu-Link.com,2013-08-25 07:29:00,
2013-08-25 00:44:00,55.4,40.9,29.75,East,90,0.0,-999.0,58,-99.99,,,0.00,Acu-Link.com,2013-08-25 07:44:00,
2013-08-25 00:59:00,53.6,39.2,29.75,NE,45,0.0,-999.0,58,-99.99,,,0.00,Acu-Link.com,2013-08-25 07:59:00,
2013-08-25 01:15:00,53.6,39.2,29.76,ENE,67,0.0,-999.0,58,-99.99,,,0.00,Acu-Link.com,2013-08-25 08:15:00,
2013-08-25 01:31:00,53.6,38.7,29.76,East,90,0.0,-999.0,57,-99.99,,,0.00,Acu-Link.com,2013-08-25 08:31:00,
2013-08-25 01:46:00,53.6,38.7,29.76,NNE,22,0.0,-999.0,57,-99.99,,,0.00,Acu-Link.com,2013-08-25 08:46:00,
2013-08-25 02:01:00,53.6,39.2,29.76,NNE,22,0.0,-999.0,58,-99.99,,,0.00,Acu-Link.com,2013-08-25 09:01:00,
2013-08-25 02:16:00,51.8,38.4,29.77,ENE,67,1.1,-999.0,60,-99.99,,,0.00,Acu-Link.com,2013-08-25 09:16:00,
2013-08-25 02:31:00,51.8,38.8,29.77,East,90,0.0,-999.0,61,-99.99,,,0.00,Acu-Link.com,2013-08-25 09:31:00,
2013-08-25 02:47:00,51.8,39.2,29.77,North,0,0.0,-999.0,62,-99.99,,,0.00,Acu-Link.com,2013-08-25 09:47:00,
2013-08-25 03:02:00,51.8,39.2,29.78,West,270,0.0,-999.0,62,-99.99,,,0.00,Acu-Link.com,2013-08-25 10:02:00,
2013-08-25 03:17:00,50.0,38.7,29.78,NE,45,0.0,-999.0,65,-99.99,,,0.00,Acu-Link.com,2013-08-25 10:17:00,
2013-08-25 03:32:00,50.0,38.7,29.79,NNE,22,0.0,-999.0,65,-99.99,,,0.00,Acu-Link.com,2013-08-25 10:32:00,
2013-08-25 03:47:00,50.0,38.7,29.79,NE,45,0.0,-999.0,65,-99.99,,,0.00,Acu-Link.com,2013-08-25 10:47:00,
2013-08-25 04:02:00,50.0,39.1,29.80,NNE,22,0.0,-999.0,66,-99.99,,,0.00,Acu-Link.com,2013-08-25 11:02:00,
2013-08-25 04:17:00,50.0,39.1,29.80,East,90,0.0,-999.0,66,-99.99,,,0.00,Acu-Link.com,2013-08-25 11:17:00,
2013-08-25 04:32:00,50.0,39.9,29.80,NE,45,0.0,-999.0,68,-99.99,,,0.00,Acu-Link.com,2013-08-25 11:32:00,
2013-08-25 04:47:00,50.0,39.9,29.81,SSW,202,0.0,-999.0,68,-99.99,,,0.00,Acu-Link.com,2013-08-25 11:47:00,
2013-08-25 05:02:00,50.0,40.2,29.81,ENE,67,0.0,-999.0,69,-99.99,,,0.00,Acu-Link.com,2013-08-25 12:02:00,
2013-08-25 05:18:00,50.0,40.6,29.81,ESE,112,0.0,-999.0,70,-99.99,,,0.00,Acu-Link.com,2013-08-25 12:18:00,
2013-08-25 05:33:00,50.0,40.6,29.82,SSE,157,0.0,-999.0,70,-99.99,,,0.00,Acu-Link.com,2013-08-25 12:33:00,
2013-08-25 05:48:00,50.0,40.6,29.82,East,90,0.0,-999.0,70,-99.99,,,0.00,Acu-Link.com,2013-08-25 12:48:00,
2013-08-25 06:03:00,50.0,41.0,29.82,SSW,202,0.0,-999.0,71,-99.99,,,0.00,Acu-Link.com,2013-08-25 13:03:00,
2013-08-25 06:18:00,48.2,40.0,29.83,East,90,0.0,-999.0,73,-99.99,,,0.00,Acu-Link.com,2013-08-25 13:18:00,
2013-08-25 06:33:00,48.2,40.0,29.83,ESE,112,0.0,-999.0,73,-99.99,,,0.00,Acu-Link.com,2013-08-25 13:33:00,
2013-08-25 06:48:00,46.4,38.9,29.83,NE,45,0.0,-999.0,75,-99.99,,,0.00,Acu-Link.com,2013-08-25 13:48:00,
2013-08-25 07:03:00,46.4,39.3,29.84,ESE,112,0.0,-999.0,76,-99.99,,,0.00,Acu-Link.com,2013-08-25 14:03:00,
2013-08-25 07:19:00,48.2,41.3,29.84,SW,225,0.0,-999.0,77,-99.99,,,0.00,Acu-Link.com,2013-08-25 14:19:00,
2013-08-25 07:34:00,50.0,43.1,29.84,SSW,202,0.0,-999.0,77,-99.99,,,0.00,Acu-Link.com,2013-08-25 14:34:00,
2013-08-25 07:49:00,51.8,43.8,29.84,SSW,202,0.0,-999.0,74,-99.99,,,0.00,Acu-Link.com,2013-08-25 14:49:00,
2013-08-25 08:05:00,51.8,42.3,29.84,South,180,0.0,-999.0,70,-99.99,,,0.00,Acu-Link.com,2013-08-25 15:05:00,
2013-08-25 08:20:00,53.6,44.1,29.85,East,90,0.0,-999.0,70,-99.99,,,0.00,Acu-Link.com,2013-08-25 15:20:00,
2013-08-25 08:35:00,55.4,44.6,29.85,WSW,247,0.0,-999.0,67,-99.99,,,0.00,Acu-Link.com,2013-08-25 15:35:00,
2013-08-25 08:50:00,57.2,45.1,29.85,NE,45,1.6,-999.0,64,-99.99,,,0.00,Acu-Link.com,2013-08-25 15:50:00,
2013-08-25 09:05:00,59.0,45.6,29.85,SW,225,0.0,-999.0,61,-99.99,,,0.00,Acu-Link.com,2013-08-25 16:05:00,
2013-08-25 09:20:00,59.0,45.1,29.85,SSW,202,0.0,-999.0,60,-99.99,,,0.00,Acu-Link.com,2013-08-25 16:20:00,
2013-08-25 09:36:00,59.0,44.7,29.85,SW,225,0.0,-999.0,59,-99.99,,,0.00,Acu-Link.com,2013-08-25 16:36:00,
2013-08-25 09:51:00,60.8,45.9,29.85,WNW,292,0.0,-999.0,58,-99.99,,,0.00,Acu-Link.com,2013-08-25 16:51:00,
2013-08-25 10:06:00,60.8,45.9,29.85,NNW,337,2.0,-999.0,58,-99.99,,,0.00,Acu-Link.com,2013-08-25 17:06:00,
2013-08-25 10:21:00,60.8,44.0,29.85,NNE,22,2.7,-999.0,54,-99.99,,,0.00,Acu-Link.com,2013-08-25 17:21:00,
2013-08-25 10:36:00,62.6,41.5,29.85,ESE,112,1.6,-999.0,46,-99.99,,,0.00,Acu-Link.com,2013-08-25 17:36:00,
2013-08-25 10:51:00,64.4,43.7,29.85,NE,45,3.6,-999.0,47,-99.99,,,0.00,Acu-Link.com,2013-08-25 17:51:00,
2013-08-25 11:06:00,64.4,42.0,29.85,ESE,112,1.6,-999.0,44,-99.99,,,0.00,Acu-Link.com,2013-08-25 18:06:00,
2013-08-25 11:21:00,64.4,42.6,29.84,ESE,112,2.7,-999.0,45,-99.99,,,0.00,Acu-Link.com,2013-08-25 18:21:00,
2013-08-25 11:37:00,64.4,43.2,29.84,ESE,112,0.0,-999.0,46,-99.99,,,0.00,Acu-Link.com,2013-08-25 18:37:00,
2013-08-25 11:52:00,64.4,43.7,29.84,NE,45,2.7,-999.0,47,-99.99,,,0.00,Acu-Link.com,2013-08-25 18:52:00,
2013-08-25 12:07:00,66.2,43.6,29.83,WSW,247,2.0,-999.0,44,-99.99,,,0.00,Acu-Link.com,2013-08-25 19:07:00,
2013-08-25 12:22:00,68.0,42.1,29.83,West,270,2.0,-999.0,39,-99.99,,,0.00,Acu-Link.com,2013-08-25 19:22:00,
2013-08-25 12:37:00,68.0,44.0,29.83,East,90,2.7,-999.0,42,-99.99,,,0.00,Acu-Link.com,2013-08-25 19:37:00,
2013-08-25 12:53:00,69.8,43.0,29.83,East,90,2.0,-999.0,38,-99.99,,,0.00,Acu-Link.com,2013-08-25 19:53:00,
2013-08-25 13:08:00,66.2,41.2,29.81,NNE,22,0.0,-999.0,40,-99.99,,,0.00,Acu-Link.com,2013-08-25 20:08:00,
2013-08-25 13:23:00,71.6,41.0,29.81,NNE,22,2.7,-999.0,33,-99.99,,,0.00,Acu-Link.com,2013-08-25 20:23:00,
2013-08-25 13:38:00,73.4,41.7,29.81,West,270,5.6,-999.0,32,-99.99,,,0.00,Acu-Link.com,2013-08-25 20:38:00,
2013-08-25 13:53:00,69.8,41.6,29.81,West,270,3.6,-999.0,36,-99.99,,,0.00,Acu-Link.com,2013-08-25 20:53:00,
2013-08-25 14:09:00,69.8,40.9,29.80,SSW,202,2.0,-999.0,35,-99.99,,,0.00,Acu-Link.com,2013-08-25 21:09:00,
2013-08-25 14:24:00,71.6,43.2,29.80,South,180,0.0,-999.0,36,-99.99,,,0.00,Acu-Link.com,2013-08-25 21:24:00,
2013-08-25 14:39:00,71.6,41.7,29.80,East,90,2.0,-999.0,34,-99.99,,,0.00,Acu-Link.com,2013-08-25 21:39:00,
2013-08-25 14:54:00,68.0,40.0,29.79,ESE,112,2.7,-999.0,36,-99.99,,,0.00,Acu-Link.com,2013-08-25 21:54:00,
2013-08-25 15:10:00,69.8,42.3,29.79,ESE,112,2.0,-999.0,37,-99.99,,,0.00,Acu-Link.com,2013-08-25 22:10:00,
2013-08-25 15:25:00,71.6,39.4,29.78,NE,45,2.7,-999.0,31,-99.99,,,0.00,Acu-Link.com,2013-08-25 22:25:00,
2013-08-25 15:40:00,71.6,40.2,29.78,East,90,1.1,-999.0,32,-99.99,,,0.00,Acu-Link.com,2013-08-25 22:40:00,
2013-08-25 15:55:00,71.6,41.0,29.77,SW,225,0.0,-999.0,33,-99.99,,,0.00,Acu-Link.com,2013-08-25 22:55:00,
2013-08-25 16:10:00,73.4,41.7,29.76,NE,45,3.1,-999.0,32,-99.99,,,0.00,Acu-Link.com,2013-08-25 23:10:00,
2013-08-25 16:25:00,71.6,38.5,29.76,ENE,67,3.1,-999.0,30,-99.99,,,0.00,Acu-Link.com,2013-08-25 23:25:00,
2013-08-25 16:40:00,75.2,38.9,29.76,WNW,292,2.7,-999.0,27,-99.99,,,0.00,Acu-Link.com,2013-08-25 23:40:00,
2013-08-25 16:55:00,75.2,38.9,29.76,SSE,157,0.0,-999.0,27,-99.99,,,0.00,Acu-Link.com,2013-08-25 23:55:00,
2013-08-25 17:11:00,75.2,38.9,29.76,ESE,112,2.0,-999.0,27,-99.99,,,0.00,Acu-Link.com,2013-08-26 00:11:00,
2013-08-25 17:26:00,73.4,37.4,29.76,NNE,22,0.0,-999.0,27,-99.99,,,0.00,Acu-Link.com,2013-08-26 00:26:00,
2013-08-25 17:41:00,73.4,36.4,29.75,WSW,247,2.7,-999.0,26,-99.99,,,0.00,Acu-Link.com,2013-08-26 00:41:00,
2013-08-25 17:56:00,77.0,38.5,29.75,ESE,112,1.6,-999.0,25,-99.99,,,0.00,Acu-Link.com,2013-08-26 00:56:00,
2013-08-25 18:11:00,77.0,38.5,29.75,East,90,2.7,-999.0,25,-99.99,,,0.00,Acu-Link.com,2013-08-26 01:11:00,
2013-08-25 18:26:00,73.4,39.2,29.74,SSE,157,0.0,-999.0,29,-99.99,,,0.00,Acu-Link.com,2013-08-26 01:26:00,
2013-08-25 18:41:00,71.6,38.5,29.74,ESE,112,2.0,-999.0,30,-99.99,,,0.00,Acu-Link.com,2013-08-26 01:41:00,
2013-08-25 18:57:00,69.8,38.6,29.74,NE,45,2.7,-999.0,32,-99.99,,,0.00,Acu-Link.com,2013-08-26 01:57:00,
2013-08-25 19:12:00,68.0,38.6,29.73,SW,225,0.0,-999.0,34,-99.99,,,0.00,Acu-Link.com,2013-08-26 02:12:00,
2013-08-25 19:27:00,68.0,40.0,29.73,NNE,22,0.0,-999.0,36,-99.99,,,0.00,Acu-Link.com,2013-08-26 02:27:00,
2013-08-25 19:42:00,66.2,39.2,29.73,NE,45,0.0,-999.0,37,-99.99,,,0.00,Acu-Link.com,2013-08-26 02:42:00,
2013-08-25 19:57:00,64.4,38.9,29.74,NE,45,0.0,-999.0,39,-99.99,,,0.00,Acu-Link.com,2013-08-26 02:57:00,
2013-08-25 20:12:00,62.6,38.6,29.73,NNE,22,0.0,-999.0,41,-99.99,,,0.00,Acu-Link.com,2013-08-26 03:12:00,
2013-08-25 20:27:00,60.8,37.6,29.74,NE,45,0.0,-999.0,42,-99.99,,,0.00,Acu-Link.com,2013-08-26 03:27:00,
2013-08-25 20:42:00,60.8,40.4,29.74,NE,45,0.0,-999.0,47,-99.99,,,0.00,Acu-Link.com,2013-08-26 03:42:00,
2013-08-25 20:57:00,59.0,38.8,29.74,NE,45,0.0,-999.0,47,-99.99,,,0.00,Acu-Link.com,2013-08-26 03:57:00,
2013-08-25 21:12:00,59.0,40.4,29.74,East,90,0.0,-999.0,50,-99.99,,,0.00,Acu-Link.com,2013-08-26 04:12:00,
2013-08-25 21:27:00,57.2,39.2,29.74,East,90,0.0,-999.0,51,-99.99,,,0.00,Acu-Link.com,2013-08-26 04:27:00,
2013-08-25 21:42:00,55.4,37.1,29.73,East,90,0.0,-999.0,50,-99.99,,,0.00,Acu-Link.com,2013-08-26 04:42:00,
2013-08-25 21:57:00,55.4,38.6,29.73,ESE,112,0.0,-999.0,53,-99.99,,,0.00,Acu-Link.com,2013-08-26 04:57:00,
2013-08-25 22:12:00,53.6,37.8,29.74,ESE,112,0.0,-999.0,55,-99.99,,,0.00,Acu-Link.com,2013-08-26 05:12:00,
2013-08-25 22:27:00,53.6,38.7,29.74,South,180,0.0,-999.0,57,-99.99,,,0.00,Acu-Link.com,2013-08-26 05:27:00,
2013-08-25 22:42:00,53.6,40.1,29.74,SE,135,0.0,-999.0,60,-99.99,,,0.00,Acu-Link.com,2013-08-26 05:42:00,
2013-08-25 22:57:00,51.8,39.2,29.74,East,90,0.0,-999.0,62,-99.99,,,0.00,Acu-Link.com,2013-08-26 05:57:00,
2013-08-25 23:12:00,51.8,39.2,29.74,SSW,202,0.0,-999.0,62,-99.99,,,0.00,Acu-Link.com,2013-08-26 06:12:00,
2013-08-25 23:28:00,51.8,39.6,29.74,SW,225,0.0,-999.0,63,-99.99,,,0.00,Acu-Link.com,2013-08-26 06:28:00,
2013-08-25 23:43:00,50.0,39.1,29.75,SSW,202,0.0,-999.0,66,-99.99,,,0.00,Acu-Link.com,2013-08-26 06:43:00,
2013-08-25 23:58:00,50.0,39.1,29.74,NE,45,0.0,-999.0,66,-99.99,,,0.00,Acu-Link.com,2013-08-26 06:58:00,